createdAt,value
2023-04-30T00:02:12.873Z,20.40
2023-04-30T00:04:41.405Z,18.10
2023-04-30T00:07:08.562Z,17.55
2023-04-30T00:09:35.783Z,17.20
2023-04-30T00:12:02.949Z,20.95
2023-04-30T00:14:30.092Z,17.60
2023-04-30T00:16:57.354Z,21.83
2023-04-30T00:19:24.553Z,15.88
2023-04-30T00:21:53.046Z,18.98
2023-04-30T00:24:20.204Z,21.88
2023-04-30T00:26:47.364Z,19.48
2023-04-30T00:29:14.576Z,24.13
2023-04-30T00:31:41.748Z,20.88
2023-04-30T00:34:08.957Z,20.45
2023-04-30T00:36:36.198Z,24.35
2023-04-30T00:39:04.882Z,21.85
2023-04-30T00:41:33.719Z,23.30
2023-04-30T00:44:00.861Z,22.48
2023-04-30T00:46:28.259Z,25.02
2023-04-30T00:48:55.581Z,26.58
2023-04-30T00:51:23.136Z,26.33
2023-04-30T00:53:50.347Z,23.15
2023-04-30T00:56:18.970Z,24.90
2023-04-30T00:58:46.301Z,24.20
2023-04-30T01:01:13.896Z,21.10
2023-04-30T01:03:43.079Z,25.90
2023-04-30T01:06:10.271Z,22.65
2023-04-30T01:08:37.636Z,25.48
2023-04-30T01:11:16.699Z,23.60
2023-04-30T01:13:54.729Z,24.77
2023-04-30T01:16:25.551Z,23.38
2023-04-30T01:18:58.180Z,23.63
2023-04-30T01:21:27.815Z,21.83
2023-04-30T01:24:09.235Z,21.90
2023-04-30T01:26:53.258Z,24.90
2023-04-30T01:29:22.786Z,26.30
2023-04-30T01:31:49.981Z,25.58
2023-04-30T01:34:17.187Z,25.52
2023-04-30T01:36:59.249Z,29.95
2023-04-30T01:39:46.959Z,31.92
2023-04-30T01:42:20.077Z,29.30
2023-04-30T01:45:12.868Z,30.83
2023-04-30T01:47:46.224Z,29.05
2023-04-30T01:50:24.504Z,33.25
2023-04-30T01:52:53.455Z,32.33
2023-04-30T01:55:27.907Z,27.73
2023-04-30T01:57:58.190Z,28.98
2023-04-30T02:00:28.396Z,30.58
2023-04-30T02:02:56.259Z,26.10
2023-04-30T02:05:23.598Z,29.83
2023-04-30T02:07:51.830Z,31.15
2023-04-30T02:10:21.993Z,32.60
2023-04-30T02:12:49.339Z,29.55
2023-04-30T02:15:16.623Z,32.03
2023-04-30T02:17:45.246Z,31.02
2023-04-30T02:20:12.600Z,28.88
2023-04-30T02:22:39.767Z,30.98
2023-04-30T02:25:07.677Z,30.98
2023-04-30T02:27:35.012Z,32.35
2023-04-30T02:30:02.333Z,29.15
2023-04-30T02:32:29.537Z,30.48
2023-04-30T02:34:58.370Z,31.20
2023-04-30T02:37:25.992Z,28.67
2023-04-30T02:39:53.628Z,35.72
2023-04-30T02:42:21.106Z,30.70
2023-04-30T02:44:48.289Z,28.40
2023-04-30T02:47:15.479Z,26.73
2023-04-30T02:49:42.680Z,30.40
2023-04-30T02:52:11.192Z,28.58
2023-04-30T02:54:38.413Z,30.30
2023-04-30T02:57:05.600Z,28.95
2023-04-30T02:59:32.825Z,29.40
2023-04-30T03:02:00.028Z,30.55
2023-04-30T03:04:27.227Z,28.20
2023-04-30T03:06:54.378Z,26.75
2023-04-30T03:09:22.897Z,35.20
2023-04-30T03:11:50.253Z,30.58
2023-04-30T03:14:17.492Z,28.00
2023-04-30T03:16:44.773Z,30.63
2023-04-30T03:19:12.673Z,32.33
2023-04-30T03:21:40.091Z,28.80
2023-04-30T03:24:07.332Z,32.83
2023-04-30T03:26:35.935Z,26.88
2023-04-30T03:29:03.143Z,27.45
2023-04-30T03:31:30.306Z,31.70
2023-04-30T03:33:57.610Z,30.33
2023-04-30T03:36:24.828Z,27.65
2023-04-30T03:38:52.006Z,30.30
2023-04-30T03:41:19.173Z,25.35
2023-04-30T03:43:47.869Z,29.00
2023-04-30T03:46:15.179Z,25.27
2023-04-30T03:48:42.415Z,29.98
2023-04-30T03:51:09.555Z,30.98
2023-04-30T03:53:36.742Z,35.15
2023-04-30T03:56:04.837Z,27.00
2023-04-30T03:58:32.375Z,37.67
2023-04-30T04:01:00.860Z,30.15
2023-04-30T04:03:28.111Z,27.02
2023-04-30T04:05:55.360Z,35.67
2023-04-30T04:08:22.972Z,29.67
2023-04-30T04:10:50.436Z,31.38
2023-04-30T04:13:17.616Z,31.48
2023-04-30T04:15:44.856Z,31.20
2023-04-30T04:18:13.441Z,32.22
2023-04-30T04:20:40.608Z,32.97
2023-04-30T04:23:07.830Z,33.28
2023-04-30T04:25:35.035Z,31.05
2023-04-30T04:28:02.239Z,30.85
2023-04-30T04:30:29.503Z,31.13
2023-04-30T04:32:57.186Z,30.60
2023-04-30T04:35:25.797Z,27.75
2023-04-30T04:37:53.017Z,27.98
2023-04-30T04:40:20.273Z,26.77
2023-04-30T04:42:49.761Z,31.40
2023-04-30T04:45:17.127Z,35.47
2023-04-30T04:47:44.364Z,29.63
2023-04-30T04:50:11.588Z,25.98
2023-04-30T04:52:40.208Z,28.52
2023-04-30T04:55:08.227Z,27.55
2023-04-30T04:57:36.627Z,28.35
2023-04-30T05:00:04.554Z,26.05
2023-04-30T05:02:31.875Z,26.23
2023-04-30T05:04:59.237Z,27.73
2023-04-30T05:07:26.406Z,28.33
2023-04-30T05:09:55.486Z,26.55
2023-04-30T05:12:22.966Z,26.27
2023-04-30T05:14:50.142Z,27.10
2023-04-30T05:17:17.285Z,23.95
2023-04-30T05:19:44.488Z,23.60
2023-04-30T05:22:11.671Z,21.95
2023-04-30T05:24:38.857Z,22.75
2023-04-30T05:27:07.399Z,25.08
2023-04-30T05:29:34.589Z,20.40
2023-04-30T05:32:01.784Z,21.10
2023-04-30T05:34:29.051Z,20.17
2023-04-30T05:36:56.236Z,21.23
2023-04-30T05:39:23.429Z,19.42
2023-04-30T05:41:51.672Z,22.83
2023-04-30T05:44:21.896Z,22.17
2023-04-30T05:46:49.033Z,21.50
2023-04-30T05:49:16.271Z,18.95
2023-04-30T05:51:43.408Z,18.25
2023-04-30T05:54:10.579Z,19.83
2023-04-30T05:56:37.747Z,19.98
2023-04-30T05:59:04.946Z,23.02
2023-04-30T06:01:33.541Z,23.80
2023-04-30T06:04:00.811Z,17.52
2023-04-30T06:06:28.090Z,17.92
2023-04-30T06:08:55.266Z,16.77
2023-04-30T06:11:22.458Z,18.92
2023-04-30T06:13:49.673Z,17.73
2023-04-30T06:16:16.881Z,15.13
2023-04-30T06:18:45.410Z,18.95
2023-04-30T06:21:12.632Z,17.23
2023-04-30T06:23:39.813Z,16.20
2023-04-30T06:26:07.020Z,15.35
2023-04-30T06:28:34.218Z,16.95
2023-04-30T06:31:01.436Z,12.30
2023-04-30T06:33:28.630Z,15.20
2023-04-30T06:35:57.180Z,12.93
2023-04-30T06:38:24.448Z,16.70
2023-04-30T06:40:51.718Z,13.07
2023-04-30T06:43:18.886Z,13.02
2023-04-30T06:45:46.076Z,14.48
2023-04-30T06:48:13.307Z,13.63
2023-04-30T06:50:40.452Z,13.75
2023-04-30T06:53:09.104Z,10.23
2023-04-30T06:55:36.281Z,12.82
2023-04-30T06:58:03.607Z,11.32
2023-04-30T07:00:30.977Z,10.32
2023-04-30T07:02:58.268Z,12.95
2023-04-30T07:05:25.509Z,11.23
2023-04-30T07:07:52.709Z,9.30
2023-04-30T07:10:21.371Z,9.68
2023-04-30T07:12:48.536Z,9.90
2023-04-30T07:15:15.910Z,9.27
2023-04-30T07:17:43.112Z,10.40
2023-04-30T07:20:11.998Z,10.35
2023-04-30T07:22:39.171Z,8.93
2023-04-30T07:25:07.372Z,7.45
2023-04-30T07:27:35.888Z,10.50
2023-04-30T07:30:03.541Z,8.70
2023-04-30T07:32:30.748Z,5.85
2023-04-30T07:34:57.935Z,11.75
2023-04-30T07:37:25.070Z,8.40
2023-04-30T07:39:52.411Z,5.30
2023-04-30T07:42:19.759Z,7.63
2023-04-30T07:44:48.222Z,6.25
2023-04-30T07:47:15.585Z,4.40
2023-04-30T07:49:42.750Z,6.93
2023-04-30T07:52:09.911Z,3.90
2023-04-30T07:54:37.238Z,2.50
2023-04-30T07:57:04.640Z,4.30
2023-04-30T07:59:31.915Z,3.15
2023-04-30T08:02:01.184Z,3.55
2023-04-30T08:04:28.464Z,3.60
2023-04-30T08:06:55.643Z,2.80
2023-04-30T08:09:22.799Z,3.15
2023-04-30T08:11:50.022Z,1.83
2023-04-30T08:14:17.161Z,1.95
2023-04-30T08:16:44.379Z,2.58
2023-04-30T08:19:13.030Z,1.90
2023-04-30T08:21:40.195Z,4.88
2023-04-30T08:24:07.546Z,2.53
2023-04-30T08:26:34.762Z,3.13
2023-04-30T08:29:01.946Z,1.73
2023-04-30T08:31:29.175Z,2.55
2023-04-30T08:33:56.483Z,1.85
2023-04-30T08:36:25.097Z,2.83
2023-04-30T08:38:52.238Z,1.48
2023-04-30T08:41:22.616Z,1.40
2023-04-30T08:43:53.005Z,1.98
2023-04-30T08:46:20.648Z,0.90
2023-04-30T08:48:47.898Z,2.10
2023-04-30T08:51:15.456Z,1.85
2023-04-30T08:53:45.339Z,3.30
2023-04-30T08:56:12.546Z,1.67
2023-04-30T08:58:40.647Z,2.42
2023-04-30T09:01:10.016Z,1.20
2023-04-30T09:03:37.606Z,1.33
2023-04-30T09:06:04.892Z,1.38
2023-04-30T09:08:44.304Z,0.80
2023-04-30T09:11:25.002Z,1.02
2023-04-30T09:13:53.369Z,0.73
2023-04-30T09:16:21.445Z,1.35
2023-04-30T09:18:49.123Z,1.27
2023-04-30T09:21:16.301Z,1.25
2023-04-30T09:23:56.105Z,2.28
2023-04-30T09:26:27.469Z,2.65
2023-04-30T09:28:56.619Z,1.40
2023-04-30T09:31:24.323Z,2.95
2023-04-30T09:33:52.438Z,3.63
2023-04-30T09:36:19.768Z,1.73
2023-04-30T09:38:47.005Z,1.23
2023-04-30T09:41:26.809Z,2.10
2023-04-30T09:43:54.522Z,1.80
2023-04-30T09:46:29.662Z,1.00
2023-04-30T09:48:57.849Z,1.55
2023-04-30T09:51:25.371Z,2.05
2023-04-30T09:53:53.151Z,2.92
2023-04-30T09:56:21.734Z,2.15
2023-04-30T09:58:52.515Z,2.75
2023-04-30T10:01:20.755Z,1.50
2023-04-30T10:03:48.779Z,1.55
2023-04-30T10:06:16.728Z,2.85
2023-04-30T10:08:47.904Z,1.90
2023-04-30T10:11:20.082Z,0.90
2023-04-30T10:13:54.443Z,0.82
2023-04-30T10:16:30.254Z,1.38
2023-04-30T10:19:02.908Z,0.90
2023-04-30T10:21:30.651Z,1.35
2023-04-30T10:23:58.226Z,0.88
2023-04-30T10:26:25.457Z,1.00
2023-04-30T10:28:56.554Z,1.70
2023-04-30T10:31:24.303Z,1.02
2023-04-30T10:33:59.088Z,0.98
2023-04-30T10:36:37.176Z,0.70
2023-04-30T10:39:05.128Z,1.05
2023-04-30T10:41:32.515Z,0.75
2023-04-30T10:44:02.533Z,1.15
2023-04-30T10:46:29.723Z,3.92
2023-04-30T10:48:57.334Z,1.17
2023-04-30T10:51:44.735Z,0.77
2023-04-30T10:54:15.504Z,1.90
2023-04-30T10:56:45.560Z,0.93
2023-04-30T10:59:14.799Z,1.05
2023-04-30T11:01:59.059Z,1.10
2023-04-30T11:04:26.281Z,0.80
2023-04-30T11:07:01.998Z,0.75
2023-04-30T11:09:37.545Z,1.10
2023-04-30T11:12:10.619Z,1.98
2023-04-30T11:14:42.370Z,1.50
2023-04-30T11:17:11.206Z,1.80
2023-04-30T11:19:46.485Z,0.70
2023-04-30T11:22:19.348Z,1.50
2023-04-30T11:24:50.652Z,1.15
2023-04-30T11:27:20.346Z,0.80
2023-04-30T11:29:49.840Z,0.73
2023-04-30T11:32:18.106Z,0.75
2023-04-30T11:34:45.731Z,1.60
2023-04-30T11:37:15.940Z,2.00
2023-04-30T11:39:43.305Z,2.05
2023-04-30T11:42:10.438Z,0.80
2023-04-30T11:44:37.628Z,1.20
2023-04-30T11:47:06.261Z,0.70
2023-04-30T11:49:33.521Z,3.03
2023-04-30T11:52:00.712Z,1.42
2023-04-30T11:54:31.447Z,0.70
2023-04-30T11:56:58.626Z,0.60
2023-04-30T11:59:25.846Z,0.73
2023-04-30T12:01:53.827Z,1.17
2023-04-30T12:04:22.611Z,1.50
2023-04-30T12:06:50.165Z,0.93
2023-04-30T12:09:17.518Z,1.45
2023-04-30T12:11:44.722Z,1.15
2023-04-30T12:14:11.897Z,1.08
2023-04-30T12:16:41.030Z,1.70
2023-04-30T12:19:08.278Z,1.23
2023-04-30T12:21:37.744Z,2.20
2023-04-30T12:24:05.042Z,1.00
2023-04-30T12:26:35.959Z,1.02
2023-04-30T12:29:04.769Z,0.98
2023-04-30T12:31:33.057Z,0.90
2023-04-30T12:34:03.932Z,2.95
2023-04-30T12:36:31.825Z,2.35
2023-04-30T12:39:18.105Z,3.72
2023-04-30T12:41:46.975Z,1.08
2023-04-30T12:44:19.064Z,1.35
2023-04-30T12:46:46.879Z,0.82
2023-04-30T12:49:22.901Z,0.70
2023-04-30T12:51:50.155Z,1.00
2023-04-30T12:54:26.897Z,1.40
2023-04-30T12:56:58.784Z,0.98
2023-04-30T12:59:26.042Z,0.65
2023-04-30T13:01:53.309Z,1.13
2023-04-30T13:04:20.730Z,1.42
2023-04-30T13:06:48.015Z,0.80
2023-04-30T13:09:15.252Z,2.28
2023-04-30T13:11:43.816Z,1.95
2023-04-30T13:14:10.960Z,0.60
2023-04-30T13:16:39.974Z,1.17
2023-04-30T13:19:07.478Z,1.35
2023-04-30T13:21:34.608Z,2.28
2023-04-30T13:24:01.814Z,1.83
2023-04-30T13:26:29.013Z,0.70
2023-04-30T13:28:57.561Z,1.27
2023-04-30T13:31:24.833Z,2.25
2023-04-30T13:33:52.069Z,1.55
2023-04-30T13:36:19.377Z,0.95
2023-04-30T13:38:46.838Z,1.42
2023-04-30T13:41:14.064Z,0.65
2023-04-30T13:43:42.489Z,1.30
2023-04-30T13:46:11.566Z,1.02
2023-04-30T13:48:38.868Z,0.80
2023-04-30T13:51:06.173Z,1.33
2023-04-30T13:53:33.327Z,1.38
2023-04-30T13:56:00.519Z,2.08
2023-04-30T13:58:27.797Z,0.80
2023-04-30T14:00:55.074Z,0.88
2023-04-30T14:03:23.715Z,2.47
2023-04-30T14:05:50.997Z,2.00
2023-04-30T14:08:18.224Z,5.70
2023-04-30T14:10:45.351Z,1.38
2023-04-30T14:13:12.562Z,1.33
2023-04-30T14:15:40.067Z,3.75
2023-04-30T14:18:07.486Z,1.60
2023-04-30T14:20:36.030Z,1.00
2023-04-30T14:23:03.215Z,1.80
2023-04-30T14:25:30.412Z,3.92
2023-04-30T14:27:57.607Z,4.28
2023-04-30T14:30:24.772Z,8.70
2023-04-30T14:32:52.027Z,1.23
2023-04-30T14:35:19.242Z,1.10
2023-04-30T14:37:47.764Z,2.40
2023-04-30T14:40:14.930Z,1.40
2023-04-30T14:42:42.088Z,1.30
2023-04-30T14:45:10.385Z,2.25
2023-04-30T14:47:37.830Z,1.10
2023-04-30T14:50:05.969Z,1.45
2023-04-30T14:52:33.140Z,1.20
2023-04-30T14:55:01.714Z,1.10
2023-04-30T14:57:28.982Z,2.30
2023-04-30T14:59:56.286Z,1.90
2023-04-30T15:02:23.742Z,1.00
2023-04-30T15:04:50.926Z,2.42
2023-04-30T15:07:18.187Z,1.92
2023-04-30T15:09:45.439Z,1.73
2023-04-30T15:12:14.147Z,1.20
2023-04-30T15:14:41.356Z,3.58
2023-04-30T15:17:08.623Z,2.67
2023-04-30T15:19:35.848Z,1.50
2023-04-30T15:22:05.980Z,1.20
2023-04-30T15:24:33.145Z,1.45
2023-04-30T15:27:00.399Z,1.67
2023-04-30T15:29:28.879Z,1.30
2023-04-30T15:31:56.170Z,1.20
2023-04-30T15:34:23.615Z,1.10
2023-04-30T15:36:50.761Z,2.05
2023-04-30T15:39:18.058Z,1.10
2023-04-30T15:41:45.204Z,1.20
2023-04-30T15:44:12.437Z,1.70
2023-04-30T15:46:41.729Z,1.20
2023-04-30T15:49:09.066Z,2.97
2023-04-30T15:51:36.285Z,1.30
2023-04-30T15:54:03.487Z,2.03
2023-04-30T15:56:30.728Z,2.30
2023-04-30T15:58:57.903Z,1.40
2023-04-30T16:01:25.096Z,4.03
2023-04-30T16:03:54.698Z,3.97
2023-04-30T16:06:22.157Z,1.85
2023-04-30T16:08:49.466Z,1.60
2023-04-30T16:11:16.607Z,5.28
2023-04-30T16:13:43.756Z,3.30
2023-04-30T16:16:10.969Z,2.22
2023-04-30T16:18:38.173Z,2.35
2023-04-30T16:21:06.856Z,2.00
2023-04-30T16:23:34.017Z,2.75
2023-04-30T16:26:01.145Z,2.30
2023-04-30T16:28:28.338Z,1.60
2023-04-30T16:30:55.738Z,1.92
2023-04-30T16:33:22.925Z,1.52
2023-04-30T16:35:50.102Z,2.92
2023-04-30T16:38:18.617Z,1.63
2023-04-30T16:40:45.857Z,2.08
2023-04-30T16:43:13.015Z,1.75
2023-04-30T16:45:40.280Z,2.17
2023-04-30T16:48:07.464Z,1.02
2023-04-30T16:50:34.683Z,2.25
2023-04-30T16:53:01.841Z,1.55
2023-04-30T16:55:30.402Z,1.35
2023-04-30T16:57:57.651Z,1.45
2023-04-30T17:00:24.813Z,1.63
2023-04-30T17:02:52.062Z,1.25
2023-04-30T17:05:19.484Z,2.50
2023-04-30T17:07:46.940Z,1.27
2023-04-30T17:10:14.848Z,3.45
2023-04-30T17:12:43.575Z,3.78
2023-04-30T17:15:10.960Z,2.38
2023-04-30T17:17:38.223Z,1.38
2023-04-30T17:20:06.328Z,2.75
2023-04-30T17:22:33.565Z,2.45
2023-04-30T17:25:01.943Z,3.05
2023-04-30T17:27:29.299Z,1.77
2023-04-30T17:29:58.009Z,1.00
2023-04-30T17:32:25.595Z,3.78
2023-04-30T17:34:52.799Z,2.83
2023-04-30T17:37:19.976Z,2.50
2023-04-30T17:39:47.137Z,1.40
2023-04-30T17:42:14.312Z,2.28
2023-04-30T17:44:41.485Z,3.05
2023-04-30T17:47:10.023Z,3.65
2023-04-30T17:49:37.188Z,2.05
2023-04-30T17:52:04.415Z,1.70
2023-04-30T17:54:31.879Z,2.80
2023-04-30T17:56:59.259Z,1.80
2023-04-30T17:59:28.812Z,1.58
2023-04-30T18:01:56.124Z,4.55
2023-04-30T18:04:25.233Z,2.65
2023-04-30T18:06:52.418Z,4.45
2023-04-30T18:09:19.599Z,3.78
2023-04-30T18:11:46.834Z,2.08
2023-04-30T18:14:14.015Z,1.30
2023-04-30T18:16:41.269Z,2.20
2023-04-30T18:19:08.515Z,3.65
2023-04-30T18:21:37.026Z,3.42
2023-04-30T18:24:04.711Z,3.50
2023-04-30T18:26:31.899Z,3.30
2023-04-30T18:28:59.075Z,5.20
2023-04-30T18:31:26.802Z,3.10
2023-04-30T18:33:54.025Z,2.05
2023-04-30T18:36:21.191Z,2.28
2023-04-30T18:38:49.688Z,2.45
2023-04-30T18:41:16.862Z,2.05
2023-04-30T18:43:44.069Z,3.17
2023-04-30T18:46:11.281Z,3.10
2023-04-30T18:48:38.486Z,2.90
2023-04-30T18:51:05.716Z,3.88
2023-04-30T18:53:32.830Z,4.13
2023-04-30T18:56:01.427Z,3.65
2023-04-30T18:58:28.585Z,2.33
2023-04-30T19:00:56.705Z,3.53
2023-04-30T19:03:24.118Z,3.33
2023-04-30T19:05:53.992Z,2.63
2023-04-30T19:08:21.145Z,2.35
2023-04-30T19:10:48.482Z,4.93
2023-04-30T19:13:17.022Z,1.98
2023-04-30T19:15:44.300Z,3.10
2023-04-30T19:18:11.840Z,4.50
2023-04-30T19:20:39.062Z,1.95
2023-04-30T19:23:07.009Z,2.80
2023-04-30T19:25:34.180Z,1.92
2023-04-30T19:28:01.337Z,2.03
2023-04-30T19:30:30.314Z,1.88
2023-04-30T19:32:57.470Z,1.60
2023-04-30T19:35:24.638Z,5.68
2023-04-30T19:37:51.801Z,2.45
2023-04-30T19:40:19.085Z,4.00
2023-04-30T19:42:46.243Z,4.68
2023-04-30T19:45:13.413Z,4.13
2023-04-30T19:47:42.024Z,3.90
2023-04-30T19:50:09.531Z,2.42
2023-04-30T19:52:36.743Z,4.90
2023-04-30T19:55:04.355Z,2.90
2023-04-30T19:57:31.487Z,6.28
2023-04-30T19:59:58.662Z,3.95
2023-04-30T20:02:25.939Z,2.15
2023-04-30T20:04:54.538Z,3.35
2023-04-30T20:07:21.658Z,4.95
2023-04-30T20:09:48.804Z,3.05
2023-04-30T20:12:15.996Z,3.50
2023-04-30T20:14:43.163Z,2.22
2023-04-30T20:17:10.298Z,3.55
2023-04-30T20:19:37.469Z,2.80
2023-04-30T20:22:05.985Z,3.92
2023-04-30T20:24:33.129Z,3.78
2023-04-30T20:27:00.278Z,1.67
2023-04-30T20:29:27.414Z,2.42
2023-04-30T20:31:54.676Z,2.17
2023-04-30T20:34:21.826Z,4.40
2023-04-30T20:36:48.980Z,2.35
2023-04-30T20:39:17.473Z,3.95
2023-04-30T20:41:44.641Z,4.70
2023-04-30T20:44:12.004Z,17.05
2023-04-30T20:46:39.305Z,5.60
2023-04-30T20:49:06.536Z,5.18
2023-04-30T20:51:33.682Z,5.00
2023-04-30T20:54:00.984Z,9.43
2023-04-30T20:56:29.590Z,8.20
2023-04-30T20:58:56.792Z,5.03
2023-04-30T21:01:23.976Z,3.65
2023-04-30T21:03:51.196Z,6.43
2023-04-30T21:06:18.417Z,11.68
2023-04-30T21:08:46.110Z,6.10
2023-04-30T21:11:13.275Z,4.43
2023-04-30T21:13:41.847Z,3.92
2023-04-30T21:16:09.079Z,2.70
2023-04-30T21:18:36.246Z,3.55
2023-04-30T21:21:03.643Z,3.83
2023-04-30T21:23:31.260Z,3.95
2023-04-30T21:25:58.469Z,3.60
2023-04-30T21:28:25.660Z,7.07
2023-04-30T21:30:54.304Z,4.10
2023-04-30T21:33:21.584Z,6.18
2023-04-30T21:35:48.752Z,5.07
2023-04-30T21:38:15.947Z,4.40
2023-04-30T21:40:43.193Z,3.55
2023-04-30T21:43:10.395Z,3.92
2023-04-30T21:45:37.538Z,3.25
2023-04-30T21:48:06.379Z,2.75
2023-04-30T21:50:33.599Z,4.20
2023-04-30T21:53:01.330Z,3.97
2023-04-30T21:55:28.707Z,3.15
2023-04-30T21:57:55.877Z,4.07
2023-04-30T22:00:23.584Z,2.85
2023-04-30T22:02:51.062Z,3.70
2023-04-30T22:05:20.179Z,4.50
2023-04-30T22:07:47.897Z,2.90
2023-04-30T22:10:15.278Z,3.00
2023-04-30T22:12:45.431Z,3.35
2023-04-30T22:17:41.494Z,4.90
2023-04-30T22:20:09.593Z,2.55
2023-04-30T22:22:38.226Z,5.07
2023-04-30T22:25:06.076Z,4.35
2023-04-30T22:27:33.443Z,7.80
2023-04-30T22:30:00.754Z,4.40
2023-04-30T22:32:27.951Z,4.22
2023-04-30T22:34:55.155Z,3.47
2023-04-30T22:37:22.597Z,3.35
2023-04-30T22:39:51.156Z,5.60
2023-04-30T22:42:18.475Z,5.78
2023-04-30T22:44:45.874Z,4.60
2023-04-30T22:47:13.362Z,6.30
2023-04-30T22:49:40.862Z,3.20
2023-04-30T22:52:08.135Z,6.07
2023-04-30T22:54:35.332Z,4.45
2023-04-30T22:57:03.863Z,4.22
2023-04-30T22:59:31.041Z,7.03
2023-04-30T23:01:58.383Z,8.10
2023-04-30T23:04:25.711Z,6.45
2023-04-30T23:06:53.238Z,4.60
2023-04-30T23:09:20.418Z,4.22
2023-04-30T23:11:47.568Z,3.92
2023-04-30T23:14:16.165Z,6.95
2023-04-30T23:16:43.506Z,5.75
2023-04-30T23:19:10.764Z,5.13
2023-04-30T23:21:37.919Z,6.97
2023-04-30T23:24:05.216Z,6.10
2023-04-30T23:26:32.388Z,6.25
2023-04-30T23:28:59.541Z,6.50
2023-04-30T23:31:28.434Z,5.57
2023-04-30T23:33:55.711Z,8.02
2023-04-30T23:36:22.931Z,9.55
2023-04-30T23:38:50.101Z,10.32
2023-04-30T23:41:17.258Z,4.43
2023-04-30T23:43:44.443Z,6.03
2023-04-30T23:46:11.709Z,5.53
2023-04-30T23:48:40.257Z,5.95
2023-04-30T23:51:07.476Z,5.45
2023-04-30T23:53:34.712Z,7.65
2023-04-30T23:56:01.986Z,5.97
2023-04-30T23:58:29.128Z,5.72
